createdAt,value
2018-01-05T00:00:44.816Z,9.17
2018-01-05T00:03:12.519Z,10.60
2018-01-05T00:05:40.250Z,9.00
2018-01-05T00:08:08.912Z,7.80
2018-01-05T00:10:36.685Z,10.33
2018-01-05T00:13:05.435Z,9.87
2018-01-05T00:15:33.168Z,9.10
2018-01-05T00:18:00.842Z,8.37
2018-01-05T00:20:28.648Z,6.80
2018-01-05T00:22:56.394Z,10.17
2018-01-05T00:25:24.095Z,9.73
2018-01-05T00:27:51.904Z,8.30
2018-01-05T00:30:20.856Z,10.23
2018-01-05T00:32:48.587Z,7.17
2018-01-05T00:35:16.300Z,5.07
2018-01-05T00:37:44.227Z,10.00
2018-01-05T00:40:11.918Z,7.17
2018-01-05T00:42:39.692Z,10.90
2018-01-05T00:45:07.510Z,6.67
2018-01-05T00:47:35.251Z,6.23
2018-01-05T00:50:02.937Z,9.97
2018-01-05T00:52:30.615Z,7.23
2018-01-05T00:54:58.580Z,6.73
2018-01-05T00:57:26.304Z,6.43
2018-01-05T00:59:54.052Z,5.17
2018-01-05T01:02:21.772Z,8.77
2018-01-05T01:04:49.516Z,6.60
2018-01-05T01:07:17.200Z,4.93
2018-01-05T01:09:45.011Z,7.50
2018-01-05T01:12:12.762Z,5.60
2018-01-05T01:14:40.506Z,3.03
2018-01-05T01:17:08.371Z,3.03
2018-01-05T01:19:36.055Z,3.87
2018-01-05T01:22:04.551Z,4.57
2018-01-05T01:24:32.234Z,3.23
2018-01-05T01:27:00.059Z,2.07
2018-01-05T01:29:27.783Z,3.77
2018-01-05T01:31:55.494Z,3.20
2018-01-05T01:34:23.431Z,1.90
2018-01-05T01:36:51.146Z,1.87
2018-01-05T01:39:18.828Z,4.40
2018-01-05T01:41:46.574Z,3.80
2018-01-05T01:44:14.257Z,2.80
2018-01-05T01:46:41.966Z,2.53
2018-01-05T01:49:09.651Z,2.90
2018-01-05T01:51:37.361Z,2.23
2018-01-05T01:54:05.062Z,2.20
2018-01-05T01:56:32.802Z,2.10
2018-01-05T01:59:00.478Z,4.43
2018-01-05T02:01:28.222Z,2.00
2018-01-05T02:03:57.027Z,1.93
2018-01-05T02:06:25.391Z,2.13
2018-01-05T02:08:53.141Z,1.60
2018-01-05T02:11:20.842Z,1.73
2018-01-05T02:13:48.576Z,2.40
2018-01-05T02:16:16.329Z,1.60
2018-01-05T02:18:44.068Z,1.90
2018-01-05T02:21:11.740Z,4.27
2018-01-05T02:23:39.478Z,1.23
2018-01-05T02:26:07.202Z,1.70
2018-01-05T02:28:34.901Z,2.47
2018-01-05T02:31:02.695Z,3.33
2018-01-05T02:33:30.362Z,1.90
2018-01-05T02:35:58.108Z,3.27
2018-01-05T02:38:25.809Z,3.90
2018-01-05T02:40:53.590Z,6.93
2018-01-05T02:43:21.278Z,6.50
2018-01-05T02:45:49.025Z,5.83
2018-01-05T02:48:16.718Z,7.10
2018-01-05T02:50:44.379Z,8.23
2018-01-05T02:53:12.130Z,8.07
2018-01-05T02:55:39.854Z,5.20
2018-01-05T02:58:07.569Z,3.20
2018-01-05T03:00:35.294Z,2.20
2018-01-05T03:03:02.980Z,3.00
2018-01-05T03:05:30.665Z,2.20
2018-01-05T03:07:58.490Z,1.80
2018-01-05T03:10:26.214Z,2.90
2018-01-05T03:12:53.976Z,10.23
2018-01-05T03:15:21.641Z,9.73
2018-01-05T03:17:49.349Z,7.67
2018-01-05T03:20:17.119Z,6.80
2018-01-05T03:22:44.847Z,8.90
2018-01-05T03:25:12.565Z,7.30
2018-01-05T03:27:40.278Z,5.57
2018-01-05T03:30:08.032Z,7.83
2018-01-05T03:32:35.724Z,6.57
2018-01-05T03:35:03.456Z,6.43
2018-01-05T03:37:31.252Z,9.43
2018-01-05T03:39:59.040Z,7.27
2018-01-05T03:42:26.738Z,6.20
2018-01-05T03:44:54.463Z,5.77
2018-01-05T03:47:22.161Z,7.00
2018-01-05T03:49:50.831Z,7.70
2018-01-05T03:52:18.514Z,6.80
2018-01-05T03:54:46.227Z,9.13
2018-01-05T03:57:14.301Z,8.07
2018-01-05T03:59:42.043Z,8.53
2018-01-05T04:02:09.803Z,5.57
2018-01-05T04:04:37.516Z,8.30
2018-01-05T04:07:05.269Z,6.13
2018-01-05T04:09:33.571Z,6.00
2018-01-05T04:12:01.365Z,5.40
2018-01-05T04:14:29.055Z,6.20
2018-01-05T04:16:56.749Z,4.33
2018-01-05T04:19:24.515Z,5.20
2018-01-05T04:21:52.241Z,6.30
2018-01-05T04:24:20.013Z,5.93
2018-01-05T04:26:47.709Z,3.20
2018-01-05T04:29:15.452Z,1.50
2018-01-05T04:31:43.159Z,1.37
2018-01-05T04:34:10.919Z,2.67
2018-01-05T04:36:38.685Z,2.10
2018-01-05T04:39:06.421Z,1.80
2018-01-05T04:41:34.183Z,1.97
2018-01-05T04:44:01.916Z,1.93
2018-01-05T04:46:29.634Z,3.60
2018-01-05T04:48:57.467Z,3.10
2018-01-05T04:51:26.090Z,2.23
2018-01-05T04:53:53.768Z,5.47
2018-01-05T04:56:21.509Z,2.40
2018-01-05T04:58:49.244Z,2.00
2018-01-05T05:01:16.923Z,2.33
2018-01-05T05:03:44.678Z,3.60
2018-01-05T05:06:12.344Z,3.60
2018-01-05T05:08:40.065Z,2.53
2018-01-05T05:11:07.760Z,2.57
2018-01-05T05:13:35.487Z,1.90
2018-01-05T05:16:03.262Z,1.27
2018-01-05T05:18:30.978Z,1.77
2018-01-05T05:20:58.667Z,2.70
2018-01-05T05:23:26.388Z,1.70
2018-01-05T05:25:54.078Z,1.10
2018-01-05T05:28:21.786Z,1.83
2018-01-05T05:30:49.565Z,0.50
2018-01-05T05:33:17.328Z,0.30
2018-01-05T05:35:45.045Z,0.40
2018-01-05T05:38:12.788Z,0.90
2018-01-05T05:40:40.498Z,1.73
2018-01-05T05:43:08.218Z,0.70
2018-01-05T05:45:35.974Z,1.63
2018-01-05T05:48:03.726Z,0.83
2018-01-05T05:50:31.474Z,0.87
2018-01-05T05:52:59.192Z,0.30
2018-01-05T05:55:26.903Z,0.30
2018-01-05T05:57:54.673Z,1.13
2018-01-05T06:00:22.395Z,7.20
2018-01-05T06:02:50.281Z,0.77
2018-01-05T06:05:18.034Z,35.77
2018-01-05T06:07:45.720Z,9.00
2018-01-05T06:10:13.438Z,2.93
2018-01-05T06:12:41.174Z,1.90
2018-01-05T06:15:08.957Z,0.63
2018-01-05T06:17:36.674Z,0.33
2018-01-05T06:20:04.550Z,1.20
2018-01-05T06:22:32.270Z,0.43
2018-01-05T06:25:00.020Z,0.40
2018-01-05T06:27:27.754Z,2.80
2018-01-05T06:29:55.503Z,5.33
2018-01-05T06:32:23.187Z,3.00
2018-01-05T06:34:50.947Z,1.60
2018-01-05T06:37:18.666Z,0.60
2018-01-05T06:39:46.352Z,1.83
2018-01-05T06:42:14.078Z,1.60
2018-01-05T06:44:41.774Z,10.03
2018-01-05T06:47:09.483Z,6.30
2018-01-05T06:49:37.267Z,10.23
2018-01-05T06:52:04.974Z,6.17
2018-01-05T06:54:32.805Z,2.73
2018-01-05T06:57:00.500Z,1.77
2018-01-05T06:59:28.278Z,5.60
2018-01-05T07:01:55.997Z,3.37
2018-01-05T07:04:24.010Z,2.27
2018-01-05T07:06:51.812Z,3.47
2018-01-05T07:09:19.529Z,4.63
2018-01-05T07:11:47.293Z,5.97
2018-01-05T07:14:15.000Z,6.43
2018-01-05T07:16:42.696Z,6.63
2018-01-05T07:19:10.403Z,9.70
2018-01-05T07:21:38.136Z,12.07
2018-01-05T07:24:05.863Z,22.87
2018-01-05T07:26:33.552Z,15.13
2018-01-05T07:29:01.275Z,8.40
2018-01-05T07:31:29.024Z,10.07
2018-01-05T07:33:56.723Z,12.43
2018-01-05T07:36:24.469Z,12.23
2018-01-05T07:38:52.173Z,18.27
2018-01-05T07:41:19.881Z,8.43
2018-01-05T07:43:47.733Z,10.10
2018-01-05T07:46:15.474Z,12.40
2018-01-05T07:48:43.329Z,10.20
2018-01-05T07:51:11.075Z,7.50
2018-01-05T07:53:38.823Z,19.47
2018-01-05T07:56:06.546Z,15.33
2018-01-05T07:58:34.250Z,18.23
2018-01-05T08:01:02.088Z,10.00
2018-01-05T08:03:29.828Z,15.60
2018-01-05T08:05:57.713Z,18.40
2018-01-05T08:08:25.492Z,19.37
2018-01-05T08:10:53.373Z,47.77
2018-01-05T08:13:21.175Z,40.53
2018-01-05T08:15:49.150Z,39.67
2018-01-05T08:18:16.894Z,23.23
2018-01-05T08:20:44.652Z,39.47
2018-01-05T08:23:12.418Z,24.83
2018-01-05T08:25:40.348Z,44.83
2018-01-05T08:28:08.141Z,15.60
2018-01-05T08:30:35.839Z,61.53
2018-01-05T08:33:03.585Z,61.33
2018-01-05T08:35:31.330Z,16.27
2018-01-05T08:37:59.089Z,17.90
2018-01-05T08:40:26.837Z,12.43
2018-01-05T08:42:54.589Z,21.60
2018-01-05T08:45:22.323Z,21.13
2018-01-05T08:47:50.102Z,16.60
2018-01-05T08:50:17.956Z,22.20
2018-01-05T08:52:45.671Z,17.87
2018-01-05T08:55:13.529Z,20.67
2018-01-05T08:57:41.326Z,37.93
2018-01-05T09:00:09.036Z,13.40
2018-01-05T09:02:36.784Z,83.97
2018-01-05T09:05:04.495Z,15.57
2018-01-05T09:07:32.212Z,105.80
2018-01-05T09:10:00.135Z,91.67
2018-01-05T09:12:28.046Z,67.67
2018-01-05T09:14:56.677Z,32.07
2018-01-05T09:17:24.483Z,18.83
2018-01-05T09:19:52.244Z,16.20
2018-01-05T09:22:20.082Z,22.40
2018-01-05T09:24:47.898Z,20.23
2018-01-05T09:27:15.625Z,7.90
2018-01-05T09:29:43.376Z,8.93
2018-01-05T09:32:11.157Z,10.60
2018-01-05T09:34:38.921Z,27.07
2018-01-05T09:37:06.678Z,20.77
2018-01-05T09:39:34.517Z,17.17
2018-01-05T09:42:02.348Z,12.80
2018-01-05T09:44:30.127Z,6.90
2018-01-05T09:46:57.844Z,9.17
2018-01-05T09:49:25.548Z,18.43
2018-01-05T09:51:53.457Z,36.37
2018-01-05T09:54:21.200Z,78.53
2018-01-05T09:56:48.943Z,80.47
2018-01-05T09:59:16.752Z,22.73
2018-01-05T10:01:44.493Z,21.37
2018-01-05T10:04:12.205Z,24.27
2018-01-05T10:06:40.022Z,20.20
2018-01-05T10:09:07.834Z,7.30
2018-01-05T10:11:35.611Z,7.60
2018-01-05T10:14:04.157Z,3.77
2018-01-05T10:16:31.913Z,3.27
2018-01-05T10:18:59.662Z,3.63
2018-01-05T10:21:27.504Z,3.87
2018-01-05T10:23:55.318Z,4.20
2018-01-05T10:26:23.068Z,43.53
2018-01-05T10:28:50.893Z,43.97
2018-01-05T10:31:18.665Z,93.30
2018-01-05T10:33:46.369Z,47.80
2018-01-05T10:36:14.165Z,120.63
2018-01-05T10:38:41.898Z,266.43
2018-01-05T10:41:09.655Z,345.53
2018-01-05T10:43:37.508Z,259.70
2018-01-05T10:46:05.319Z,50.77
2018-01-05T10:48:33.249Z,45.37
2018-01-05T10:51:01.378Z,70.00
2018-01-05T10:53:29.155Z,74.93
2018-01-05T10:55:56.941Z,121.00
2018-01-05T10:58:24.632Z,149.73
2018-01-05T11:00:52.411Z,89.30
2018-01-05T11:03:20.957Z,90.57
2018-01-05T11:05:48.748Z,70.13
2018-01-05T11:08:16.592Z,191.07
2018-01-05T11:10:44.322Z,30.33
2018-01-05T11:13:12.125Z,156.93
2018-01-05T11:15:39.840Z,46.47
2018-01-05T11:18:07.573Z,80.97
2018-01-05T11:20:35.582Z,130.53
2018-01-05T11:23:03.655Z,181.43
2018-01-05T11:25:31.385Z,195.40
2018-01-05T11:27:59.156Z,69.73
2018-01-05T11:30:26.877Z,219.40
2018-01-05T11:32:55.489Z,227.07
2018-01-05T11:35:23.306Z,49.67
2018-01-05T11:37:51.068Z,222.77
2018-01-05T11:40:18.885Z,167.80
2018-01-05T11:42:46.582Z,161.73
2018-01-05T11:45:14.619Z,41.10
2018-01-05T11:47:42.360Z,64.50
2018-01-05T11:50:10.110Z,86.67
2018-01-05T11:52:37.898Z,31.80
2018-01-05T11:55:05.604Z,33.50
2018-01-05T11:57:33.392Z,52.60
2018-01-05T12:00:02.702Z,29.37
2018-01-05T12:02:30.614Z,20.20
2018-01-05T12:04:58.343Z,14.63
2018-01-05T12:07:26.337Z,107.40
2018-01-05T12:09:54.069Z,40.93
2018-01-05T12:12:21.860Z,104.77
2018-01-05T12:14:49.650Z,74.70
2018-01-05T12:17:17.453Z,117.17
2018-01-05T12:19:45.228Z,60.47
2018-01-05T12:22:13.014Z,52.60
2018-01-05T12:24:40.742Z,157.70
2018-01-05T12:27:08.500Z,115.03
2018-01-05T12:29:36.563Z,31.60
2018-01-05T12:32:04.370Z,29.47
2018-01-05T12:34:32.200Z,24.63
2018-01-05T12:36:59.931Z,57.03
2018-01-05T12:39:27.697Z,25.03
2018-01-05T12:41:55.478Z,25.33
2018-01-05T12:44:23.232Z,48.33
2018-01-05T12:46:51.033Z,13.10
2018-01-05T12:49:18.803Z,72.47
2018-01-05T12:51:46.637Z,38.03
2018-01-05T12:54:14.601Z,89.00
2018-01-05T12:56:42.342Z,26.37
2018-01-05T12:59:10.125Z,271.07
2018-01-05T13:01:37.931Z,265.47
2018-01-05T13:04:05.765Z,294.07
2018-01-05T13:06:33.568Z,75.07
2018-01-05T13:09:01.379Z,101.27
2018-01-05T13:11:30.367Z,69.43
2018-01-05T13:13:58.103Z,22.47
2018-01-05T13:16:25.936Z,63.47
2018-01-05T13:18:53.647Z,144.93
2018-01-05T13:21:21.396Z,48.03
2018-01-05T13:23:49.193Z,167.27
2018-01-05T13:26:16.909Z,173.97
2018-01-05T13:28:44.611Z,51.73
2018-01-05T13:31:12.401Z,190.77
2018-01-05T13:33:40.179Z,64.37
2018-01-05T13:36:07.997Z,190.27
2018-01-05T13:38:35.714Z,38.57
2018-01-05T13:41:03.520Z,78.37
2018-01-05T13:43:31.285Z,56.03
2018-01-05T13:45:59.068Z,61.03
2018-01-05T13:48:26.834Z,176.17
2018-01-05T13:50:54.549Z,127.07
2018-01-05T13:53:23.383Z,147.63
2018-01-05T13:55:51.173Z,275.47
2018-01-05T13:58:18.906Z,169.53
2018-01-05T14:00:47.905Z,173.13
2018-01-05T14:03:15.731Z,185.93
2018-01-05T14:05:44.759Z,229.57
2018-01-05T14:08:12.588Z,77.07
2018-01-05T14:10:40.400Z,126.87
2018-01-05T14:13:08.141Z,119.97
2018-01-05T14:15:35.928Z,116.77
2018-01-05T14:18:03.724Z,103.43
2018-01-05T14:20:31.509Z,151.17
2018-01-05T14:22:59.312Z,50.50
2018-01-05T14:25:27.149Z,41.70
2018-01-05T14:27:55.007Z,100.77
2018-01-05T14:30:23.923Z,220.60
2018-01-05T14:32:51.687Z,176.87
2018-01-05T14:35:19.437Z,100.97
2018-01-05T14:37:47.913Z,117.63
2018-01-05T14:40:15.750Z,173.33
2018-01-05T14:42:43.557Z,107.53
2018-01-05T14:45:11.347Z,51.97
2018-01-05T14:47:39.199Z,150.40
2018-01-05T14:50:06.999Z,180.40
2018-01-05T14:52:34.911Z,42.50
2018-01-05T14:55:02.677Z,193.00
2018-01-05T14:57:30.480Z,135.27
2018-01-05T14:59:58.322Z,128.03
2018-01-05T15:02:29.676Z,166.73
2018-01-05T15:04:57.495Z,121.47
2018-01-05T15:07:25.275Z,202.13
2018-01-05T15:09:53.025Z,52.67
2018-01-05T15:12:20.887Z,143.53
2018-01-05T15:14:48.843Z,114.97
2018-01-05T15:17:16.643Z,207.97
2018-01-05T15:19:44.451Z,201.60
2018-01-05T15:22:12.180Z,32.20
2018-01-05T15:24:40.071Z,224.13
2018-01-05T15:27:07.923Z,27.67
2018-01-05T15:29:35.784Z,24.10
2018-01-05T15:32:03.590Z,38.93
2018-01-05T15:34:31.407Z,228.57
2018-01-05T15:36:59.227Z,182.77
2018-01-05T15:39:27.041Z,82.90
2018-01-05T15:41:54.876Z,46.67
2018-01-05T15:44:22.711Z,168.97
2018-01-05T15:46:50.566Z,89.90
2018-01-05T15:49:18.335Z,74.50
2018-01-05T15:51:46.256Z,150.87
2018-01-05T15:54:14.272Z,68.77
2018-01-05T15:56:42.125Z,144.47
2018-01-05T15:59:09.932Z,234.87
2018-01-05T16:01:37.763Z,92.53
2018-01-05T16:04:05.704Z,89.57
2018-01-05T16:06:33.509Z,128.70
2018-01-05T16:09:01.264Z,23.90
2018-01-05T16:11:29.086Z,42.43
2018-01-05T16:13:56.896Z,21.90
2018-01-05T16:16:24.650Z,31.60
2018-01-05T16:18:52.585Z,33.93
2018-01-05T16:21:20.400Z,47.27
2018-01-05T16:23:48.166Z,37.53
2018-01-05T16:26:15.921Z,38.33
2018-01-05T16:28:43.773Z,33.23
2018-01-05T16:31:11.542Z,125.13
2018-01-05T16:33:40.551Z,20.67
2018-01-05T16:36:08.371Z,28.07
2018-01-05T16:38:37.273Z,20.70
2018-01-05T16:41:05.077Z,20.17
2018-01-05T16:43:32.893Z,22.70
2018-01-05T16:46:00.614Z,32.50
2018-01-05T16:48:28.418Z,21.67
2018-01-05T16:50:56.123Z,19.57
2018-01-05T16:53:23.916Z,27.40
2018-01-05T16:55:51.946Z,22.60
2018-01-05T16:58:19.724Z,22.60
2018-01-05T17:00:47.415Z,38.43
2018-01-05T17:03:15.206Z,33.03
2018-01-05T17:05:42.958Z,55.87
2018-01-05T17:08:10.724Z,46.20
2018-01-05T17:10:39.504Z,42.07
2018-01-05T17:13:07.313Z,57.00
2018-01-05T17:15:35.022Z,59.03
2018-01-05T17:18:02.760Z,41.07
2018-01-05T17:20:30.567Z,85.40
2018-01-05T17:22:58.741Z,51.23
2018-01-05T17:25:26.537Z,45.93
2018-01-05T17:27:55.210Z,53.43
2018-01-05T17:30:22.945Z,41.73
2018-01-05T17:32:51.701Z,27.57
2018-01-05T17:35:19.494Z,29.10
2018-01-05T17:37:47.263Z,24.00
2018-01-05T17:40:15.222Z,24.57
2018-01-05T17:42:44.071Z,13.73
2018-01-05T17:45:11.878Z,29.13
2018-01-05T17:47:39.636Z,23.00
2018-01-05T17:50:07.458Z,14.03
2018-01-05T17:52:35.257Z,22.73
2018-01-05T17:55:03.197Z,30.77
2018-01-05T17:57:30.941Z,25.17
2018-01-05T17:59:58.756Z,30.53
2018-01-05T18:02:26.524Z,22.43
2018-01-05T18:04:54.329Z,20.10
2018-01-05T18:07:22.284Z,40.73
2018-01-05T18:09:50.094Z,22.57
2018-01-05T18:12:20.105Z,28.20
2018-01-05T18:14:48.169Z,29.93
2018-01-05T18:17:15.890Z,22.90
2018-01-05T18:19:44.533Z,32.37
2018-01-05T18:22:12.356Z,26.03
2018-01-05T18:24:40.130Z,30.03
2018-01-05T18:27:08.044Z,31.53
2018-01-05T18:29:36.079Z,32.07
2018-01-05T18:32:03.894Z,22.50
2018-01-05T18:34:31.922Z,16.70
2018-01-05T18:36:59.839Z,16.60
2018-01-05T18:39:27.816Z,33.60
2018-01-05T18:41:55.676Z,55.27
2018-01-05T18:44:24.792Z,44.77
2018-01-05T18:46:52.808Z,63.63
2018-01-05T18:49:21.187Z,63.10
2018-01-05T18:51:49.040Z,28.73
2018-01-05T18:54:16.889Z,49.10
2018-01-05T18:56:44.874Z,64.60
2018-01-05T18:59:13.600Z,33.13
2018-01-05T19:01:41.384Z,45.57
2018-01-05T19:04:09.187Z,58.70
2018-01-05T19:06:40.909Z,25.47
2018-01-05T19:09:08.779Z,137.03
2018-01-05T19:11:36.584Z,148.47
2018-01-05T19:14:04.473Z,41.27
2018-01-05T19:16:32.243Z,19.23
2018-01-05T19:19:00.199Z,9.30
2018-01-05T19:21:27.969Z,35.67
2018-01-05T19:23:55.711Z,36.60
2018-01-05T19:26:23.445Z,17.50
2018-01-05T19:28:51.237Z,68.40
2018-01-05T19:31:19.043Z,108.63
2018-01-05T19:33:46.899Z,79.97
2018-01-05T19:36:15.769Z,45.33
2018-01-05T19:38:43.602Z,205.90
2018-01-05T19:41:11.498Z,70.97
2018-01-05T19:43:39.578Z,15.23
2018-01-05T19:46:07.442Z,12.10
2018-01-05T19:48:35.425Z,15.43
2018-01-05T19:51:03.282Z,33.27
2018-01-05T19:53:31.059Z,44.23
2018-01-05T19:55:58.841Z,34.83
2018-01-05T19:58:26.632Z,33.83
2018-01-05T20:00:54.442Z,6.90
2018-01-05T20:03:22.289Z,40.77
2018-01-05T20:05:50.290Z,35.77
2018-01-05T20:08:18.425Z,24.00
2018-01-05T20:10:46.584Z,18.77
2018-01-05T20:13:14.685Z,13.13
2018-01-05T20:15:42.787Z,12.27
2018-01-05T20:18:11.060Z,12.83
2018-01-05T20:20:39.213Z,25.47
2018-01-05T20:23:08.473Z,12.60
2018-01-05T20:25:37.844Z,22.30
2018-01-05T20:28:06.420Z,24.33
2018-01-05T20:30:36.759Z,13.57
2018-01-05T20:33:05.291Z,21.33
2018-01-05T20:35:34.548Z,20.00
2018-01-05T20:38:08.754Z,17.50
2018-01-05T20:40:36.917Z,8.30
2018-01-05T20:43:05.683Z,7.27
2018-01-05T20:45:34.768Z,14.67
2018-01-05T20:48:02.916Z,10.43
2018-01-05T20:50:33.722Z,14.50
2018-01-05T20:53:02.429Z,12.83
2018-01-05T20:55:31.803Z,12.37
2018-01-05T20:57:59.995Z,16.37
2018-01-05T21:00:29.336Z,14.10
2018-01-05T21:02:57.656Z,9.57
2018-01-05T21:05:26.537Z,47.50
2018-01-05T21:07:55.817Z,33.53
2018-01-05T21:10:23.996Z,17.00
2018-01-05T21:12:52.415Z,10.50
2018-01-05T21:15:20.801Z,35.77
2018-01-05T21:17:48.902Z,12.43
2018-01-05T21:20:16.838Z,16.30
2018-01-05T21:22:44.782Z,15.90
2018-01-05T21:25:12.635Z,21.77
2018-01-05T21:27:41.044Z,21.83
2018-01-05T21:30:09.729Z,9.60
2018-01-05T21:32:39.122Z,8.67
2018-01-05T21:35:07.657Z,7.30
2018-01-05T21:37:35.615Z,13.07
2018-01-05T21:40:03.538Z,6.07
2018-01-05T21:42:31.277Z,7.23
2018-01-05T21:44:59.187Z,5.47
2018-01-05T21:47:26.964Z,7.63
2018-01-05T21:49:54.733Z,9.03
2018-01-05T21:52:22.540Z,5.50
2018-01-05T21:54:50.367Z,8.63
2018-01-05T21:57:18.204Z,7.67
2018-01-05T21:59:46.082Z,6.10
2018-01-05T22:02:13.939Z,10.73
2018-01-05T22:04:41.737Z,17.30
2018-01-05T22:07:09.688Z,22.47
2018-01-05T22:09:37.491Z,10.67
2018-01-05T22:12:06.234Z,38.03
2018-01-05T22:14:33.995Z,9.33
2018-01-05T22:17:01.820Z,13.97
2018-01-05T22:19:29.549Z,13.17
2018-01-05T22:21:57.343Z,8.00
2018-01-05T22:24:25.070Z,7.33
2018-01-05T22:26:52.796Z,25.83
2018-01-05T22:29:20.594Z,23.10
2018-01-05T22:31:48.311Z,29.07
2018-01-05T22:34:16.024Z,12.23
2018-01-05T22:36:43.986Z,14.50
2018-01-05T22:39:11.724Z,33.70
2018-01-05T22:41:39.548Z,12.77
2018-01-05T22:44:07.280Z,26.77
2018-01-05T22:46:35.090Z,30.23
2018-01-05T22:49:02.946Z,9.60
2018-01-05T22:51:30.886Z,5.17
2018-01-05T22:53:58.654Z,9.37
2018-01-05T22:56:26.406Z,7.47
2018-01-05T22:58:54.120Z,7.13
2018-01-05T23:01:21.840Z,10.43
2018-01-05T23:03:49.637Z,29.80
2018-01-05T23:06:17.550Z,11.87
2018-01-05T23:08:45.295Z,8.40
2018-01-05T23:11:13.129Z,6.70
2018-01-05T23:13:40.916Z,6.60
2018-01-05T23:16:08.630Z,4.90
2018-01-05T23:18:36.382Z,13.23
2018-01-05T23:21:04.123Z,6.50
2018-01-05T23:23:31.920Z,4.63
2018-01-05T23:25:59.634Z,4.67
2018-01-05T23:28:27.313Z,5.37
2018-01-05T23:30:55.077Z,4.13
2018-01-05T23:33:22.772Z,16.03
2018-01-05T23:35:50.727Z,6.90
2018-01-05T23:38:18.446Z,10.80
2018-01-05T23:40:46.165Z,8.70
2018-01-05T23:43:13.909Z,5.20
2018-01-05T23:45:41.622Z,6.67
2018-01-05T23:48:09.402Z,5.93
2018-01-05T23:50:37.148Z,4.97
2018-01-05T23:53:05.713Z,4.47
2018-01-05T23:55:33.465Z,6.30
2018-01-05T23:58:01.189Z,6.20
